createdAt,value
2022-09-26T00:01:21.109Z,7.75
2022-09-26T00:03:57.038Z,6.20
2022-09-26T00:06:25.049Z,7.35
2022-09-26T00:08:53.084Z,6.38
2022-09-26T00:11:24.320Z,7.97
2022-09-26T00:13:57.105Z,5.72
2022-09-26T00:16:24.216Z,6.65
2022-09-26T00:18:52.366Z,9.23
2022-09-26T00:21:19.747Z,6.88
2022-09-26T00:23:47.053Z,5.93
2022-09-26T00:26:15.538Z,5.57
2022-09-26T00:28:42.688Z,4.97
2022-09-26T00:31:15.293Z,7.78
2022-09-26T00:33:43.113Z,6.40
2022-09-26T00:36:10.081Z,5.07
2022-09-26T00:38:37.824Z,5.88
2022-09-26T00:41:04.888Z,5.07
2022-09-26T00:43:39.703Z,6.43
2022-09-26T00:46:31.544Z,5.65
2022-09-26T00:49:03.999Z,6.75
2022-09-26T00:51:31.871Z,5.45
2022-09-26T00:53:59.315Z,6.03
2022-09-26T00:56:34.080Z,5.30
2022-09-26T00:59:22.339Z,5.03
2022-09-26T01:01:51.920Z,4.95
2022-09-26T01:04:19.628Z,4.40
2022-09-26T01:06:49.982Z,4.15
2022-09-26T01:09:16.965Z,6.82
2022-09-26T01:11:44.723Z,6.13
2022-09-26T01:14:13.784Z,5.55
2022-09-26T01:16:44.685Z,5.22
2022-09-26T01:19:23.060Z,6.30
2022-09-26T01:21:52.924Z,4.82
2022-09-26T01:24:47.867Z,5.38
2022-09-26T01:27:17.552Z,5.55
2022-09-26T01:30:06.149Z,4.80
2022-09-26T01:32:51.064Z,4.40
2022-09-26T01:35:48.879Z,4.15
2022-09-26T01:38:24.453Z,5.05
2022-09-26T01:40:51.260Z,5.45
2022-09-26T01:43:30.515Z,4.43
2022-09-26T01:46:21.650Z,4.90
2022-09-26T01:48:58.828Z,4.05
2022-09-26T01:51:33.456Z,4.00
2022-09-26T01:54:04.265Z,4.60
2022-09-26T01:56:37.210Z,4.45
2022-09-26T01:59:14.813Z,4.50
2022-09-26T02:01:45.280Z,4.30
2022-09-26T02:04:21.144Z,3.58
2022-09-26T02:06:57.558Z,4.43
2022-09-26T02:09:36.423Z,4.47
2022-09-26T02:12:08.955Z,4.65
2022-09-26T02:14:41.926Z,4.25
2022-09-26T02:17:13.068Z,4.65
2022-09-26T02:19:51.419Z,7.03
2022-09-26T02:22:18.937Z,4.45
2022-09-26T02:24:45.871Z,3.80
2022-09-26T02:27:13.196Z,4.85
2022-09-26T02:29:40.627Z,3.53
2022-09-26T02:32:17.589Z,3.97
2022-09-26T02:34:47.193Z,3.55
2022-09-26T02:37:15.887Z,4.35
2022-09-26T02:39:44.765Z,3.47
2022-09-26T02:42:24.472Z,4.38
2022-09-26T02:45:10.163Z,4.43
2022-09-26T02:47:51.276Z,4.85
2022-09-26T02:51:02.934Z,3.67
2022-09-26T02:54:21.442Z,3.70
2022-09-26T02:57:00.000Z,3.33
2022-09-26T02:59:50.270Z,3.72
2022-09-26T03:02:22.524Z,3.45
2022-09-26T03:04:51.163Z,3.53
2022-09-26T03:07:32.004Z,4.20
2022-09-26T03:10:03.716Z,3.45
2022-09-26T03:12:32.452Z,3.05
2022-09-26T03:15:00.661Z,3.38
2022-09-26T03:17:29.476Z,3.22
2022-09-26T03:20:11.143Z,3.22
2022-09-26T03:22:39.871Z,6.05
2022-09-26T03:25:09.472Z,4.38
2022-09-26T03:27:39.011Z,3.30
2022-09-26T03:30:07.495Z,4.10
2022-09-26T03:32:34.232Z,3.50
2022-09-26T03:35:00.991Z,3.58
2022-09-26T03:37:27.757Z,3.17
2022-09-26T03:39:54.464Z,4.60
2022-09-26T03:42:21.384Z,5.65
2022-09-26T03:44:48.246Z,3.80
2022-09-26T03:47:17.230Z,3.08
2022-09-26T03:49:44.145Z,4.13
2022-09-26T03:52:11.907Z,3.67
2022-09-26T03:54:38.782Z,4.20
2022-09-26T03:57:05.749Z,4.80
2022-09-26T03:59:32.483Z,3.70
2022-09-26T04:01:59.303Z,3.72
2022-09-26T04:04:26.810Z,3.67
2022-09-26T04:06:53.540Z,4.22
2022-09-26T04:09:20.945Z,2.88
2022-09-26T04:11:47.887Z,4.05
2022-09-26T04:14:14.623Z,3.38
2022-09-26T04:16:41.678Z,2.58
2022-09-26T04:19:08.721Z,2.50
2022-09-26T04:21:36.299Z,2.90
2022-09-26T04:24:03.204Z,4.47
2022-09-26T04:26:30.051Z,3.03
2022-09-26T04:28:59.087Z,2.90
2022-09-26T04:31:28.190Z,4.78
2022-09-26T04:33:55.426Z,3.35
2022-09-26T04:36:22.811Z,3.85
2022-09-26T04:38:49.978Z,6.07
2022-09-26T04:41:19.566Z,3.50
2022-09-26T04:43:46.755Z,4.97
2022-09-26T04:46:20.879Z,3.70
2022-09-26T04:48:50.507Z,3.90
2022-09-26T04:51:19.674Z,2.95
2022-09-26T04:53:46.682Z,4.97
2022-09-26T04:56:15.550Z,2.90
2022-09-26T04:58:43.523Z,5.85
2022-09-26T05:01:16.067Z,3.08
2022-09-26T05:03:42.970Z,4.22
2022-09-26T05:06:11.224Z,4.65
2022-09-26T05:08:41.232Z,5.60
2022-09-26T05:11:09.352Z,4.22
2022-09-26T05:13:38.956Z,3.28
2022-09-26T05:16:09.062Z,7.45
2022-09-26T05:18:37.083Z,3.72
2022-09-26T05:21:05.966Z,3.08
2022-09-26T05:23:51.656Z,3.50
2022-09-26T05:26:24.250Z,5.30
2022-09-26T05:29:08.446Z,3.50
2022-09-26T05:31:38.263Z,5.70
2022-09-26T05:34:13.065Z,5.18
2022-09-26T05:36:43.098Z,2.92
2022-09-26T05:39:29.926Z,4.28
2022-09-26T05:41:58.863Z,5.78
2022-09-26T05:44:25.834Z,4.05
2022-09-26T05:46:52.731Z,5.60
2022-09-26T05:49:19.682Z,4.18
2022-09-26T05:51:46.605Z,4.38
2022-09-26T05:54:13.853Z,3.67
2022-09-26T05:56:40.981Z,5.20
2022-09-26T05:59:08.003Z,4.70
2022-09-26T06:01:35.391Z,5.25
2022-09-26T06:04:05.443Z,3.97
2022-09-26T06:06:32.317Z,6.75
2022-09-26T06:09:00.017Z,3.88
2022-09-26T06:11:31.081Z,4.40
2022-09-26T06:14:00.795Z,4.13
2022-09-26T06:16:28.747Z,3.92
2022-09-26T06:18:55.922Z,8.55
2022-09-26T06:21:23.296Z,4.80
2022-09-26T06:23:50.069Z,5.05
2022-09-26T06:26:21.788Z,3.60
2022-09-26T06:28:53.071Z,4.95
2022-09-26T06:31:22.032Z,6.40
2022-09-26T06:33:54.405Z,4.05
2022-09-26T06:36:25.042Z,3.65
2022-09-26T06:38:53.471Z,4.47
2022-09-26T06:41:20.224Z,4.05
2022-09-26T06:43:47.704Z,4.28
2022-09-26T06:46:16.148Z,3.38
2022-09-26T06:48:44.540Z,4.22
2022-09-26T06:51:13.907Z,5.80
2022-09-26T06:53:41.299Z,4.20
2022-09-26T06:56:08.230Z,6.47
2022-09-26T06:58:34.983Z,10.85
2022-09-26T07:01:02.362Z,3.72
2022-09-26T07:03:29.646Z,4.45
2022-09-26T07:05:57.450Z,3.95
2022-09-26T07:08:43.401Z,6.32
2022-09-26T07:11:32.947Z,8.45
2022-09-26T07:14:04.981Z,8.00
2022-09-26T07:16:32.262Z,7.22
2022-09-26T07:18:58.984Z,5.55
2022-09-26T07:21:25.787Z,6.25
2022-09-26T07:23:57.918Z,6.90
2022-09-26T07:26:24.718Z,9.70
2022-09-26T07:28:54.774Z,6.82
2022-09-26T07:31:23.690Z,6.22
2022-09-26T07:33:50.805Z,8.57
2022-09-26T07:36:18.453Z,7.28
2022-09-26T07:38:48.608Z,7.13
2022-09-26T07:41:15.795Z,4.63
2022-09-26T07:44:30.255Z,7.18
2022-09-26T07:46:48.804Z,9.93
2022-09-26T07:49:34.125Z,8.73
2022-09-26T07:52:01.092Z,7.43
2022-09-26T07:54:27.799Z,7.07
2022-09-26T07:56:55.214Z,6.43
2022-09-26T07:59:22.962Z,8.85
2022-09-26T08:01:52.338Z,8.27
2022-09-26T08:04:19.160Z,4.93
2022-09-26T08:06:46.720Z,7.07
2022-09-26T08:09:13.560Z,7.22
2022-09-26T08:11:41.977Z,8.13
2022-09-26T08:14:09.188Z,3.85
2022-09-26T08:16:39.649Z,4.63
2022-09-26T08:19:07.950Z,4.85
2022-09-26T08:21:35.391Z,4.53
2022-09-26T08:24:02.627Z,4.47
2022-09-26T08:26:30.070Z,4.72
2022-09-26T08:28:59.934Z,4.88
2022-09-26T08:31:26.780Z,6.18
2022-09-26T08:33:54.066Z,5.55
2022-09-26T08:36:22.489Z,3.40
2022-09-26T08:38:52.321Z,6.45
2022-09-26T08:41:25.057Z,4.68
2022-09-26T08:44:10.439Z,2.83
2022-09-26T08:47:02.274Z,3.55
2022-09-26T08:49:42.550Z,6.03
2022-09-26T08:52:22.329Z,4.75
2022-09-26T08:54:53.211Z,6.60
2022-09-26T08:57:41.367Z,6.82
2022-09-26T09:00:22.556Z,5.32
2022-09-26T09:03:15.122Z,6.63
2022-09-26T09:05:53.201Z,6.53
2022-09-26T09:08:30.813Z,3.47
2022-09-26T09:11:05.741Z,3.00
2022-09-26T09:13:58.336Z,3.53
2022-09-26T09:16:33.191Z,3.83
2022-09-26T09:19:25.935Z,3.13
2022-09-26T09:22:07.946Z,3.92
2022-09-26T09:24:55.709Z,4.43
2022-09-26T09:28:04.056Z,4.35
2022-09-26T09:30:40.988Z,3.80
2022-09-26T09:33:23.212Z,4.85
2022-09-26T09:35:51.605Z,3.88
2022-09-26T09:38:21.808Z,5.50
2022-09-26T09:41:12.344Z,3.10
2022-09-26T09:43:47.595Z,3.33
2022-09-26T09:46:30.770Z,4.40
2022-09-26T09:49:09.528Z,3.73
2022-09-26T09:52:13.336Z,3.15
2022-09-26T09:55:01.079Z,3.27
2022-09-26T09:57:45.925Z,3.38
2022-09-26T10:00:20.178Z,3.95
2022-09-26T10:02:51.857Z,3.42
2022-09-26T10:05:50.337Z,3.92
2022-09-26T10:08:27.407Z,3.45
2022-09-26T10:11:28.418Z,4.30
2022-09-26T10:14:00.114Z,4.07
2022-09-26T10:16:27.183Z,2.78
2022-09-26T10:19:08.734Z,3.95
2022-09-26T10:21:39.450Z,3.75
2022-09-26T10:24:08.726Z,3.20
2022-09-26T10:26:39.148Z,6.78
2022-09-26T10:29:35.204Z,3.67
2022-09-26T10:32:03.549Z,4.82
2022-09-26T10:34:32.728Z,3.88
2022-09-26T10:37:18.039Z,4.80
2022-09-26T10:40:11.502Z,6.18
2022-09-26T10:42:41.795Z,4.50
2022-09-26T10:45:27.468Z,2.40
2022-09-26T10:47:56.211Z,5.60
2022-09-26T10:50:27.946Z,4.35
2022-09-26T10:53:04.811Z,2.70
2022-09-26T10:55:51.004Z,4.05
2022-09-26T10:58:25.222Z,2.88
2022-09-26T11:00:53.755Z,2.80
2022-09-26T11:03:24.415Z,3.00
2022-09-26T11:05:57.376Z,3.22
2022-09-26T11:08:35.782Z,3.37
2022-09-26T11:11:11.264Z,3.60
2022-09-26T11:14:08.452Z,4.55
2022-09-26T11:16:44.335Z,4.50
2022-09-26T11:19:19.789Z,3.33
2022-09-26T11:22:05.878Z,3.47
2022-09-26T11:24:55.089Z,4.13
2022-09-26T11:27:26.773Z,4.28
2022-09-26T11:30:11.817Z,3.00
2022-09-26T11:32:41.673Z,4.45
2022-09-26T11:35:43.279Z,2.50
2022-09-26T11:38:26.381Z,4.15
2022-09-26T11:41:07.218Z,2.53
2022-09-26T11:43:52.174Z,4.32
2022-09-26T11:46:38.408Z,3.97
2022-09-26T11:49:25.504Z,4.82
2022-09-26T11:52:34.337Z,4.47
2022-09-26T11:55:04.194Z,2.58
2022-09-26T11:58:03.373Z,4.30
2022-09-26T12:00:59.875Z,4.35
2022-09-26T12:03:36.797Z,3.20
2022-09-26T12:06:21.068Z,3.85
2022-09-26T12:08:51.749Z,4.68
2022-09-26T12:11:54.546Z,5.40
2022-09-26T12:14:36.118Z,5.38
2022-09-26T12:17:21.303Z,11.05
2022-09-26T12:20:10.649Z,5.25
2022-09-26T12:22:44.006Z,5.18
2022-09-26T12:25:44.487Z,8.63
2022-09-26T12:28:27.465Z,4.28
2022-09-26T12:31:05.848Z,4.87
2022-09-26T12:34:16.023Z,3.78
2022-09-26T12:37:18.145Z,6.07
2022-09-26T12:40:00.487Z,3.88
2022-09-26T12:42:30.509Z,4.25
2022-09-26T12:45:38.900Z,4.75
2022-09-26T12:48:18.199Z,3.15
2022-09-26T12:51:12.369Z,3.28
2022-09-26T12:56:31.054Z,4.60
2022-09-26T12:59:38.591Z,3.08
2022-09-26T13:02:18.095Z,3.58
2022-09-26T13:05:07.057Z,4.78
2022-09-26T13:07:42.244Z,1.70
2022-09-26T13:10:36.878Z,5.65
2022-09-26T13:13:12.323Z,3.97
2022-09-26T13:16:04.841Z,3.13
2022-09-26T13:18:38.039Z,4.30
2022-09-26T13:21:12.274Z,4.32
2022-09-26T13:23:52.558Z,3.10
2022-09-26T13:26:26.056Z,3.47
2022-09-26T13:29:19.660Z,3.20
2022-09-26T13:32:05.004Z,3.83
2022-09-26T13:34:40.196Z,2.70
2022-09-26T13:37:18.215Z,2.15
2022-09-26T13:40:00.275Z,3.97
2022-09-26T13:42:47.529Z,2.70
2022-09-26T13:46:05.764Z,2.78
2022-09-26T13:48:50.127Z,6.00
2022-09-26T13:51:54.589Z,17.30
2022-09-26T13:54:44.138Z,36.28
2022-09-26T13:57:35.749Z,23.88
2022-09-26T14:00:26.700Z,13.20
2022-09-26T14:03:18.066Z,11.35
2022-09-26T14:05:45.776Z,25.42
2022-09-26T14:08:43.086Z,11.38
2022-09-26T14:11:15.508Z,17.15
2022-09-26T14:13:42.292Z,12.35
2022-09-26T14:16:38.647Z,29.67
2022-09-26T14:19:27.189Z,8.10
2022-09-26T14:22:05.272Z,22.00
2022-09-26T14:24:42.981Z,7.85
2022-09-26T14:27:09.873Z,7.70
2022-09-26T14:29:39.406Z,14.30
2022-09-26T14:32:10.416Z,42.92
2022-09-26T14:35:01.847Z,23.65
2022-09-26T14:37:33.391Z,12.63
2022-09-26T14:40:04.059Z,13.55
2022-09-26T14:42:38.378Z,14.55
2022-09-26T14:45:07.989Z,12.30
2022-09-26T14:47:43.878Z,13.10
2022-09-26T14:50:20.808Z,13.38
2022-09-26T14:52:54.836Z,16.35
2022-09-26T14:55:21.847Z,37.28
2022-09-26T14:57:48.735Z,28.85
2022-09-26T15:00:37.252Z,22.33
2022-09-26T15:03:16.492Z,36.25
2022-09-26T15:05:45.379Z,19.23
2022-09-26T15:08:25.898Z,22.55
2022-09-26T15:10:57.096Z,33.78
2022-09-26T15:13:42.171Z,27.98
2022-09-26T15:16:37.697Z,26.70
2022-09-26T15:19:19.270Z,48.80
2022-09-26T15:21:55.822Z,18.30
2022-09-26T15:24:32.926Z,13.95
2022-09-26T15:27:08.472Z,21.95
2022-09-26T15:29:37.155Z,13.35
2022-09-26T15:32:04.255Z,20.17
2022-09-26T15:34:36.763Z,11.77
2022-09-26T15:37:16.116Z,13.32
2022-09-26T15:39:43.786Z,30.38
2022-09-26T15:42:44.446Z,16.20
2022-09-26T15:45:28.830Z,13.43
2022-09-26T15:48:01.122Z,16.00
2022-09-26T15:50:40.395Z,26.60
2022-09-26T15:53:09.644Z,18.67
2022-09-26T15:55:51.624Z,32.53
2022-09-26T15:58:29.885Z,14.57
2022-09-26T16:00:58.833Z,13.65
2022-09-26T16:03:39.341Z,8.35
2022-09-26T16:06:16.956Z,15.05
2022-09-26T16:08:43.827Z,6.80
2022-09-26T16:11:10.915Z,8.38
2022-09-26T16:13:44.216Z,17.38
2022-09-26T16:16:20.911Z,15.15
2022-09-26T16:18:58.964Z,6.43
2022-09-26T16:21:36.438Z,14.93
2022-09-26T16:24:36.374Z,15.30
2022-09-26T16:27:26.630Z,15.82
2022-09-26T16:29:54.026Z,7.25
2022-09-26T16:32:22.102Z,15.98
2022-09-26T16:34:49.796Z,24.45
2022-09-26T16:37:23.023Z,10.45
2022-09-26T16:39:59.561Z,10.63
2022-09-26T16:42:32.964Z,8.10
2022-09-26T16:45:04.794Z,9.85
2022-09-26T16:47:35.444Z,7.95
2022-09-26T16:50:33.525Z,7.30
2022-09-26T16:53:04.893Z,11.63
2022-09-26T16:55:35.043Z,5.95
2022-09-26T16:58:06.088Z,5.30
2022-09-26T17:00:53.231Z,4.72
2022-09-26T17:03:26.714Z,9.23
2022-09-26T17:05:55.835Z,7.93
2022-09-26T17:08:26.927Z,26.02
2022-09-26T17:10:56.522Z,16.08
2022-09-26T17:16:10.718Z,12.18
2022-09-26T17:18:37.853Z,10.88
2022-09-26T17:21:04.778Z,10.70
2022-09-26T17:23:42.375Z,9.57
2022-09-26T17:26:18.406Z,9.25
2022-09-26T17:28:45.728Z,8.88
2022-09-26T17:31:19.583Z,8.45
2022-09-26T17:33:49.716Z,7.35
2022-09-26T17:36:23.486Z,9.55
2022-09-26T17:41:17.310Z,9.27
2022-09-26T17:43:45.204Z,8.85
2022-09-26T17:46:16.281Z,7.20
2022-09-26T17:48:44.586Z,7.78
2022-09-26T17:51:14.129Z,6.40
2022-09-26T17:53:51.061Z,6.10
2022-09-26T17:56:19.441Z,6.30
2022-09-26T17:58:48.028Z,5.45
2022-09-26T18:01:35.309Z,6.53
2022-09-26T18:04:06.370Z,8.77
2022-09-26T18:06:33.753Z,7.25
2022-09-26T18:09:05.557Z,5.70
2022-09-26T18:11:34.614Z,4.28
2022-09-26T18:14:03.886Z,6.38
2022-09-26T18:16:30.707Z,10.80
2022-09-26T18:18:57.579Z,5.85
2022-09-26T18:21:26.331Z,7.38
2022-09-26T18:24:00.826Z,5.25
2022-09-26T18:26:47.278Z,8.10
2022-09-26T18:29:26.104Z,5.50
2022-09-26T18:31:53.348Z,5.18
2022-09-26T18:34:20.381Z,5.22
2022-09-26T18:36:49.977Z,7.30
2022-09-26T18:39:17.057Z,6.78
2022-09-26T18:41:45.186Z,5.32
2022-09-26T18:44:17.442Z,7.88
2022-09-26T18:46:47.185Z,7.35
2022-09-26T18:49:15.479Z,5.97
2022-09-26T18:51:42.826Z,5.18
2022-09-26T18:54:13.572Z,5.57
2022-09-26T18:56:59.254Z,6.63
2022-09-26T18:59:29.017Z,4.45
2022-09-26T19:01:56.334Z,7.53
2022-09-26T19:04:23.571Z,6.25
2022-09-26T19:07:06.627Z,5.13
2022-09-26T19:09:35.550Z,4.65
2022-09-26T19:12:03.564Z,6.50
2022-09-26T19:14:31.388Z,4.43
2022-09-26T19:16:58.803Z,6.03
2022-09-26T19:19:28.458Z,5.63
2022-09-26T19:21:57.279Z,6.22
2022-09-26T19:24:36.946Z,6.72
2022-09-26T19:27:21.366Z,4.93
2022-09-26T19:30:02.575Z,7.65
2022-09-26T19:32:33.762Z,6.07
2022-09-26T19:35:03.755Z,5.15
2022-09-26T19:37:30.564Z,8.93
2022-09-26T19:39:57.896Z,4.57
2022-09-26T19:42:26.188Z,4.90
2022-09-26T19:44:53.084Z,9.18
2022-09-26T19:47:23.296Z,5.20
2022-09-26T19:49:52.888Z,4.25
2022-09-26T19:52:21.050Z,3.92
2022-09-26T19:54:48.890Z,4.97
2022-09-26T19:57:17.821Z,4.18
2022-09-26T19:59:45.860Z,4.95
2022-09-26T20:02:32.045Z,3.42
2022-09-26T20:04:59.008Z,4.95
2022-09-26T20:07:25.845Z,6.65
2022-09-26T20:09:52.809Z,4.85
2022-09-26T20:12:19.695Z,6.28
2022-09-26T20:14:46.515Z,7.15
2022-09-26T20:17:25.987Z,6.18
2022-09-26T20:19:58.580Z,5.82
2022-09-26T20:22:26.180Z,7.80
2022-09-26T20:24:57.061Z,6.65
2022-09-26T20:27:28.078Z,4.35
2022-09-26T20:30:14.904Z,5.95
2022-09-26T20:32:42.502Z,5.20
2022-09-26T20:35:14.608Z,4.80
2022-09-26T20:37:42.739Z,5.90
2022-09-26T20:40:19.602Z,6.10
2022-09-26T20:42:50.774Z,6.82
2022-09-26T20:45:27.063Z,5.57
2022-09-26T20:47:54.205Z,7.68
2022-09-26T20:50:21.232Z,4.40
2022-09-26T20:52:48.171Z,6.13
2022-09-26T20:55:17.953Z,4.50
2022-09-26T20:57:45.566Z,5.20
2022-09-26T21:00:16.677Z,6.88
2022-09-26T21:02:44.551Z,4.22
2022-09-26T21:05:24.633Z,4.18
2022-09-26T21:07:52.466Z,5.65
2022-09-26T21:10:28.555Z,6.15
2022-09-26T21:12:55.857Z,7.75
2022-09-26T21:15:24.717Z,4.75
2022-09-26T21:17:53.208Z,5.68
2022-09-26T21:20:24.822Z,5.93
2022-09-26T21:22:52.518Z,5.50
2022-09-26T21:25:22.351Z,6.15
2022-09-26T21:27:53.916Z,4.80
2022-09-26T21:30:20.954Z,6.47
2022-09-26T21:32:54.856Z,4.90
2022-09-26T21:37:52.658Z,4.32
2022-09-26T21:40:22.427Z,4.85
2022-09-26T21:42:53.239Z,5.30
2022-09-26T21:45:26.456Z,5.95
2022-09-26T21:47:57.818Z,6.70
2022-09-26T21:50:27.990Z,4.97
2022-09-26T21:53:03.631Z,6.30
2022-09-26T21:55:37.279Z,9.45
2022-09-26T21:58:09.948Z,5.53
2022-09-26T22:00:36.763Z,6.47
2022-09-26T22:03:03.646Z,9.90
2022-09-26T22:05:31.412Z,7.25
2022-09-26T22:07:58.497Z,4.85
2022-09-26T22:10:27.065Z,5.93
2022-09-26T22:12:54.096Z,5.68
2022-09-26T22:15:22.527Z,6.20
2022-09-26T22:17:49.466Z,8.48
2022-09-26T22:20:16.525Z,6.50
2022-09-26T22:22:43.366Z,4.68
2022-09-26T22:25:10.419Z,4.47
2022-09-26T22:27:38.366Z,5.85
2022-09-26T22:30:06.575Z,7.15
2022-09-26T22:32:33.824Z,5.38
2022-09-26T22:35:00.678Z,5.88
2022-09-26T22:37:27.512Z,5.93
2022-09-26T22:39:54.704Z,5.55
2022-09-26T22:42:21.544Z,4.55
2022-09-26T22:44:48.400Z,6.13
2022-09-26T22:47:15.310Z,4.25
2022-09-26T22:49:42.347Z,4.25
2022-09-26T22:52:09.246Z,5.80
2022-09-26T22:54:36.118Z,5.78
2022-09-26T22:57:02.962Z,6.25
2022-09-26T22:59:29.804Z,5.47
2022-09-26T23:01:57.528Z,8.55
2022-09-26T23:04:44.421Z,6.88
2022-09-26T23:07:13.005Z,8.05
2022-09-26T23:09:40.393Z,8.07
2022-09-26T23:12:07.674Z,6.70
2022-09-26T23:14:34.746Z,7.00
2022-09-26T23:17:01.857Z,8.30
2022-09-26T23:19:29.051Z,6.47
2022-09-26T23:21:56.057Z,5.82
2022-09-26T23:24:22.936Z,8.05
2022-09-26T23:26:49.756Z,7.47
2022-09-26T23:29:16.696Z,5.80
2022-09-26T23:31:43.675Z,5.70
2022-09-26T23:34:11.852Z,9.10
2022-09-26T23:36:38.691Z,6.07
2022-09-26T23:39:05.731Z,5.72
2022-09-26T23:41:32.596Z,7.97
2022-09-26T23:43:59.591Z,5.90
2022-09-26T23:46:26.617Z,9.95
2022-09-26T23:48:54.134Z,7.72
2022-09-26T23:51:21.067Z,9.10
2022-09-26T23:53:48.410Z,6.93
2022-09-26T23:56:16.382Z,9.27
2022-09-26T23:58:43.650Z,6.40
